createdAt,value
2022-11-28T00:01:21.366Z,4.10
2022-11-28T00:03:48.600Z,4.63
2022-11-28T00:06:16.097Z,4.13
2022-11-28T00:08:43.456Z,5.07
2022-11-28T00:11:11.745Z,4.73
2022-11-28T00:13:38.903Z,4.90
2022-11-28T00:16:07.478Z,4.37
2022-11-28T00:18:34.854Z,4.20
2022-11-28T00:21:02.439Z,4.43
2022-11-28T00:23:30.318Z,4.00
2022-11-28T00:26:00.852Z,4.63
2022-11-28T00:28:28.351Z,4.33
2022-11-28T00:30:55.582Z,4.30
2022-11-28T00:33:22.770Z,4.40
2022-11-28T00:35:49.857Z,4.07
2022-11-28T00:38:16.982Z,4.30
2022-11-28T00:40:44.070Z,4.10
2022-11-28T00:43:12.930Z,4.00
2022-11-28T00:45:40.037Z,4.17
2022-11-28T00:48:07.142Z,4.27
2022-11-28T00:50:34.174Z,4.20
2022-11-28T00:53:01.270Z,4.07
2022-11-28T00:55:28.308Z,4.60
2022-11-28T00:57:55.421Z,4.80
2022-11-28T01:00:22.781Z,4.70
2022-11-28T01:02:50.680Z,4.83
2022-11-28T01:05:17.834Z,4.70
2022-11-28T01:07:44.928Z,4.87
2022-11-28T01:10:12.582Z,5.23
2022-11-28T01:12:39.656Z,4.63
2022-11-28T01:15:08.945Z,4.83
2022-11-28T01:17:36.348Z,5.07
2022-11-28T01:20:04.538Z,4.73
2022-11-28T01:22:31.748Z,5.70
2022-11-28T01:24:58.797Z,4.93
2022-11-28T01:27:25.852Z,5.43
2022-11-28T01:29:53.099Z,4.73
2022-11-28T01:32:20.154Z,5.07
2022-11-28T01:34:47.266Z,4.77
2022-11-28T01:37:14.319Z,5.20
2022-11-28T01:39:41.407Z,4.37
2022-11-28T01:42:08.441Z,4.97
2022-11-28T01:44:35.466Z,4.10
2022-11-28T01:47:02.576Z,4.50
2022-11-28T01:49:32.351Z,4.40
2022-11-28T01:52:01.825Z,4.73
2022-11-28T01:54:29.588Z,4.10
2022-11-28T01:57:01.291Z,3.97
2022-11-28T01:59:30.562Z,4.30
2022-11-28T02:01:57.677Z,4.93
2022-11-28T02:04:26.880Z,4.20
2022-11-28T02:06:53.997Z,4.30
2022-11-28T02:09:21.066Z,4.83
2022-11-28T02:11:48.097Z,4.00
2022-11-28T02:14:33.837Z,4.43
2022-11-28T02:17:19.695Z,4.90
2022-11-28T02:19:57.752Z,4.73
2022-11-28T02:22:45.080Z,4.17
2022-11-28T02:25:13.769Z,4.20
2022-11-28T02:27:43.822Z,4.63
2022-11-28T02:30:20.035Z,4.47
2022-11-28T02:32:55.600Z,5.10
2022-11-28T02:35:45.661Z,5.10
2022-11-28T02:38:15.793Z,4.70
2022-11-28T02:40:58.060Z,5.40
2022-11-28T02:43:43.880Z,4.47
2022-11-28T02:46:16.011Z,5.10
2022-11-28T02:48:48.064Z,5.27
2022-11-28T02:51:17.865Z,4.97
2022-11-28T02:53:45.877Z,5.07
2022-11-28T02:56:13.562Z,5.77
2022-11-28T02:58:40.874Z,5.10
2022-11-28T03:01:13.431Z,5.40
2022-11-28T03:03:43.683Z,6.00
2022-11-28T03:06:13.589Z,5.30
2022-11-28T03:08:46.572Z,4.93
2022-11-28T03:11:20.716Z,5.13
2022-11-28T03:13:57.976Z,4.90
2022-11-28T03:16:34.892Z,5.80
2022-11-28T03:19:11.309Z,5.60
2022-11-28T03:21:38.311Z,5.47
2022-11-28T03:24:11.221Z,6.07
2022-11-28T03:26:55.134Z,5.47
2022-11-28T03:29:24.903Z,5.80
2022-11-28T03:31:57.909Z,5.80
2022-11-28T03:34:26.608Z,5.40
2022-11-28T03:37:02.201Z,5.70
2022-11-28T03:39:32.509Z,5.40
2022-11-28T03:42:09.669Z,6.07
2022-11-28T03:44:39.064Z,5.93
2022-11-28T03:47:06.441Z,5.63
2022-11-28T03:49:35.234Z,5.90
2022-11-28T03:52:06.999Z,5.60
2022-11-28T03:54:34.069Z,6.10
2022-11-28T03:57:04.760Z,6.47
2022-11-28T03:59:34.024Z,6.67
2022-11-28T04:02:24.485Z,5.83
2022-11-28T04:05:02.254Z,5.57
2022-11-28T04:07:40.072Z,6.60
2022-11-28T04:10:16.189Z,5.47
2022-11-28T04:12:49.275Z,5.80
2022-11-28T04:15:36.594Z,5.70
2022-11-28T04:18:25.671Z,7.00
2022-11-28T04:21:04.075Z,6.93
2022-11-28T04:23:32.624Z,5.90
2022-11-28T04:26:02.313Z,5.73
2022-11-28T04:28:31.976Z,6.20
2022-11-28T04:31:00.790Z,6.90
2022-11-28T04:33:30.235Z,6.57
2022-11-28T04:35:57.647Z,6.47
2022-11-28T04:38:25.576Z,6.23
2022-11-28T04:40:55.690Z,6.43
2022-11-28T04:43:30.735Z,6.60
2022-11-28T04:46:01.364Z,6.13
2022-11-28T04:48:33.965Z,6.17
2022-11-28T04:51:16.090Z,6.70
2022-11-28T04:53:50.054Z,6.13
2022-11-28T04:56:27.186Z,6.63
2022-11-28T04:58:54.243Z,6.53
2022-11-28T05:01:26.498Z,6.80
2022-11-28T05:03:53.940Z,7.03
2022-11-28T05:06:31.963Z,7.30
2022-11-28T05:08:59.553Z,7.23
2022-11-28T05:11:27.246Z,6.97
2022-11-28T05:13:55.171Z,7.37
2022-11-28T05:16:22.928Z,6.97
2022-11-28T05:18:50.181Z,7.33
2022-11-28T05:21:17.243Z,7.00
2022-11-28T05:23:45.201Z,7.67
2022-11-28T05:26:13.740Z,8.10
2022-11-28T05:28:43.493Z,7.17
2022-11-28T05:31:10.635Z,7.63
2022-11-28T05:33:37.695Z,7.23
2022-11-28T05:36:09.909Z,7.17
2022-11-28T05:38:39.908Z,8.60
2022-11-28T05:41:07.250Z,8.23
2022-11-28T05:43:34.362Z,8.33
2022-11-28T05:46:01.749Z,9.17
2022-11-28T05:48:28.890Z,8.03
2022-11-28T05:50:56.050Z,8.53
2022-11-28T05:53:23.125Z,8.03
2022-11-28T05:55:50.294Z,8.13
2022-11-28T05:58:17.341Z,9.10
2022-11-28T06:00:44.457Z,8.97
2022-11-28T06:03:11.555Z,8.77
2022-11-28T06:05:43.441Z,8.00
2022-11-28T06:08:14.065Z,8.03
2022-11-28T06:10:41.546Z,8.67
2022-11-28T06:13:09.241Z,8.70
2022-11-28T06:15:38.248Z,9.47
2022-11-28T06:18:06.117Z,9.00
2022-11-28T06:20:35.671Z,8.40
2022-11-28T06:23:02.789Z,8.87
2022-11-28T06:25:29.977Z,8.80
2022-11-28T06:27:57.039Z,9.77
2022-11-28T06:30:24.087Z,8.33
2022-11-28T06:32:51.133Z,9.17
2022-11-28T06:35:18.215Z,8.53
2022-11-28T06:37:45.452Z,8.93
2022-11-28T06:40:12.629Z,8.63
2022-11-28T06:42:39.671Z,8.77
2022-11-28T06:45:07.245Z,8.63
2022-11-28T06:47:34.395Z,9.93
2022-11-28T06:50:01.549Z,8.87
2022-11-28T06:52:28.630Z,9.23
2022-11-28T06:54:55.882Z,9.47
2022-11-28T06:57:23.014Z,9.93
2022-11-28T06:59:50.645Z,9.50
2022-11-28T07:02:17.899Z,9.53
2022-11-28T07:04:45.325Z,10.13
2022-11-28T07:07:16.331Z,9.40
2022-11-28T07:09:44.091Z,9.67
2022-11-28T07:12:11.482Z,8.97
2022-11-28T07:14:38.661Z,10.23
2022-11-28T07:17:06.064Z,8.63
2022-11-28T07:19:33.227Z,8.90
2022-11-28T07:22:00.651Z,8.47
2022-11-28T07:24:27.897Z,7.97
2022-11-28T07:26:54.931Z,8.43
2022-11-28T07:29:22.903Z,8.60
2022-11-28T07:31:50.010Z,9.70
2022-11-28T07:34:17.061Z,8.40
2022-11-28T07:36:44.138Z,9.03
2022-11-28T07:39:13.329Z,9.07
2022-11-28T07:41:40.360Z,8.40
2022-11-28T07:44:07.423Z,9.70
2022-11-28T07:46:34.692Z,8.80
2022-11-28T07:49:02.069Z,7.60
2022-11-28T07:51:30.878Z,8.03
2022-11-28T07:53:58.050Z,8.43
2022-11-28T07:56:35.139Z,8.70
2022-11-28T07:59:12.162Z,9.10
2022-11-28T08:01:39.539Z,8.40
2022-11-28T08:04:07.803Z,8.83
2022-11-28T08:06:40.177Z,8.17
2022-11-28T08:09:07.473Z,8.67
2022-11-28T08:11:34.975Z,8.87
2022-11-28T08:14:02.291Z,8.97
2022-11-28T08:16:30.273Z,8.27
2022-11-28T08:18:57.834Z,7.63
2022-11-28T08:21:26.230Z,9.10
2022-11-28T08:23:54.290Z,8.13
2022-11-28T08:26:23.952Z,8.77
2022-11-28T08:28:54.786Z,8.50
2022-11-28T08:31:23.399Z,8.47
2022-11-28T08:33:51.713Z,8.00
2022-11-28T08:36:19.394Z,7.70
2022-11-28T08:38:57.836Z,7.97
2022-11-28T08:41:33.777Z,8.30
2022-11-28T08:44:01.023Z,8.50
2022-11-28T08:46:29.303Z,9.17
2022-11-28T08:48:56.373Z,8.03
2022-11-28T08:51:24.010Z,8.57
2022-11-28T08:53:54.866Z,8.57
2022-11-28T08:56:25.072Z,7.87
2022-11-28T08:58:52.133Z,9.07
2022-11-28T09:01:22.635Z,7.90
2022-11-28T09:03:50.361Z,8.40
2022-11-28T09:06:18.099Z,8.40
2022-11-28T09:08:45.694Z,8.40
2022-11-28T09:11:14.643Z,9.47
2022-11-28T09:13:41.901Z,8.83
2022-11-28T09:16:09.178Z,7.93
2022-11-28T09:18:36.882Z,8.87
2022-11-28T09:21:11.588Z,7.73
2022-11-28T09:23:39.432Z,8.00
2022-11-28T09:26:10.298Z,7.97
2022-11-28T09:28:37.633Z,8.33
2022-11-28T09:31:05.671Z,8.63
2022-11-28T09:33:33.274Z,7.17
2022-11-28T09:36:00.418Z,7.97
2022-11-28T09:38:27.526Z,7.80
2022-11-28T09:40:54.601Z,8.00
2022-11-28T09:43:24.755Z,7.80
2022-11-28T09:45:53.492Z,8.30
2022-11-28T09:48:26.759Z,8.30
2022-11-28T09:50:55.600Z,7.83
2022-11-28T09:53:37.264Z,8.37
2022-11-28T09:56:09.553Z,8.13
2022-11-28T09:58:59.011Z,6.93
2022-11-28T10:01:42.594Z,8.00
2022-11-28T10:04:22.066Z,8.20
2022-11-28T10:06:58.451Z,7.90
2022-11-28T10:09:28.366Z,8.03
2022-11-28T10:12:00.403Z,7.20
2022-11-28T10:14:46.140Z,7.73
2022-11-28T10:17:32.097Z,8.13
2022-11-28T10:19:59.435Z,8.90
2022-11-28T10:22:34.877Z,7.83
2022-11-28T10:25:05.636Z,8.30
2022-11-28T10:27:35.974Z,7.87
2022-11-28T10:30:08.560Z,7.50
2022-11-28T10:32:37.532Z,9.20
2022-11-28T10:35:11.201Z,8.20
2022-11-28T10:37:39.585Z,7.37
2022-11-28T10:40:16.211Z,7.80
2022-11-28T10:43:06.675Z,7.30
2022-11-28T10:45:52.100Z,7.90
2022-11-28T10:48:39.743Z,8.20
2022-11-28T10:51:16.424Z,7.77
2022-11-28T10:53:49.705Z,7.80
2022-11-28T10:56:23.230Z,8.37
2022-11-28T10:58:55.817Z,9.37
2022-11-28T11:01:22.986Z,8.80
2022-11-28T11:03:50.614Z,8.17
2022-11-28T11:06:17.662Z,9.37
2022-11-28T11:08:46.088Z,8.10
2022-11-28T11:11:19.294Z,7.83
2022-11-28T11:14:00.500Z,9.17
2022-11-28T11:16:46.618Z,7.60
2022-11-28T11:19:24.218Z,7.80
2022-11-28T11:22:03.562Z,7.77
2022-11-28T11:24:30.779Z,7.43
2022-11-28T11:27:05.546Z,8.63
2022-11-28T11:29:37.526Z,8.10
2022-11-28T11:32:06.347Z,7.60
2022-11-28T11:34:38.536Z,8.07
2022-11-28T11:37:41.154Z,8.47
2022-11-28T11:40:27.671Z,7.90
2022-11-28T11:42:59.346Z,8.40
2022-11-28T11:45:28.656Z,7.47
2022-11-28T11:47:55.865Z,7.60
2022-11-28T11:50:24.327Z,8.67
2022-11-28T11:53:10.289Z,8.00
2022-11-28T11:55:45.232Z,7.80
2022-11-28T11:58:15.162Z,8.20
2022-11-28T12:00:43.334Z,7.47
2022-11-28T12:03:17.376Z,8.03
2022-11-28T12:06:13.323Z,8.00
2022-11-28T12:08:39.909Z,8.27
2022-11-28T12:11:12.768Z,7.67
2022-11-28T12:13:39.857Z,8.77
2022-11-28T12:16:11.925Z,8.90
2022-11-28T12:18:52.530Z,7.60
2022-11-28T12:21:22.591Z,7.87
2022-11-28T12:24:06.937Z,8.60
2022-11-28T12:26:48.535Z,8.20
2022-11-28T12:29:15.563Z,7.80
2022-11-28T12:31:52.724Z,7.60
2022-11-28T12:34:29.143Z,8.07
2022-11-28T12:37:08.528Z,8.93
2022-11-28T12:39:54.059Z,8.40
2022-11-28T12:42:24.225Z,7.90
2022-11-28T12:45:14.619Z,9.63
2022-11-28T12:47:59.986Z,9.37
2022-11-28T12:50:34.836Z,8.23
2022-11-28T12:53:20.533Z,8.40
2022-11-28T12:56:07.636Z,8.37
2022-11-28T12:58:37.299Z,8.90
2022-11-28T13:01:13.270Z,8.53
2022-11-28T13:03:41.470Z,9.23
2022-11-28T13:06:18.999Z,8.03
2022-11-28T13:08:49.287Z,9.73
2022-11-28T13:11:35.115Z,10.03
2022-11-28T13:14:05.615Z,8.40
2022-11-28T13:16:38.815Z,9.40
2022-11-28T13:19:11.759Z,8.37
2022-11-28T13:21:49.174Z,8.33
2022-11-28T13:24:34.583Z,8.43
2022-11-28T13:27:07.632Z,8.93
2022-11-28T13:29:37.460Z,9.50
2022-11-28T13:32:07.348Z,10.30
2022-11-28T13:34:35.347Z,9.67
2022-11-28T13:40:09.294Z,9.20
2022-11-28T13:45:34.679Z,9.73
2022-11-28T13:48:32.214Z,9.60
2022-11-28T13:51:31.441Z,9.53
2022-11-28T13:54:18.048Z,10.60
2022-11-28T13:56:46.202Z,10.43
2022-11-28T13:59:18.945Z,9.73
2022-11-28T14:01:48.314Z,9.37
2022-11-28T14:04:16.796Z,9.07
2022-11-28T14:06:48.370Z,8.97
2022-11-28T14:09:15.551Z,9.77
2022-11-28T14:11:42.652Z,9.20
2022-11-28T14:14:09.695Z,9.70
2022-11-28T14:16:48.279Z,10.57
2022-11-28T14:19:31.436Z,9.43
2022-11-28T14:22:06.235Z,9.60
2022-11-28T14:24:33.482Z,9.50
2022-11-28T14:27:01.885Z,10.67
2022-11-28T14:29:36.819Z,10.47
2022-11-28T14:32:29.036Z,9.43
2022-11-28T14:34:51.296Z,10.27
2022-11-28T14:37:21.452Z,9.60
2022-11-28T14:39:49.385Z,9.97
2022-11-28T14:42:36.744Z,9.37
2022-11-28T14:45:23.519Z,9.67
2022-11-28T14:48:09.364Z,9.87
2022-11-28T14:50:36.379Z,10.50
2022-11-28T14:53:22.007Z,9.27
2022-11-28T14:55:49.105Z,9.63
2022-11-28T14:58:17.503Z,9.77
2022-11-28T15:00:52.908Z,10.80
2022-11-28T15:03:26.374Z,10.17
2022-11-28T15:05:58.898Z,11.03
2022-11-28T15:08:41.919Z,10.90
2022-11-28T15:11:21.000Z,11.10
2022-11-28T15:13:50.861Z,10.90
2022-11-28T15:16:19.556Z,10.40
2022-11-28T15:18:51.430Z,10.10
2022-11-28T15:21:19.607Z,10.50
2022-11-28T15:23:47.132Z,10.77
2022-11-28T15:26:21.690Z,11.70
2022-11-28T15:28:48.800Z,10.30
2022-11-28T15:31:23.748Z,11.50
2022-11-28T15:33:51.421Z,11.63
2022-11-28T15:36:24.522Z,12.27
2022-11-28T15:38:51.570Z,12.10
2022-11-28T15:41:23.278Z,11.60
2022-11-28T15:43:50.805Z,10.97
2022-11-28T15:46:19.797Z,11.00
2022-11-28T15:48:52.131Z,11.03
2022-11-28T15:51:24.774Z,11.80
2022-11-28T15:53:51.825Z,11.83
2022-11-28T15:56:19.421Z,12.60
2022-11-28T15:58:47.756Z,14.03
2022-11-28T16:01:27.713Z,14.53
2022-11-28T16:04:16.573Z,11.87
2022-11-28T16:06:45.304Z,12.17
2022-11-28T16:09:18.401Z,12.87
2022-11-28T16:11:46.876Z,12.87
2022-11-28T16:14:20.648Z,12.43
2022-11-28T16:16:47.838Z,12.23
2022-11-28T16:19:25.444Z,13.40
2022-11-28T16:22:09.932Z,12.80
2022-11-28T16:24:46.825Z,12.10
2022-11-28T16:27:32.353Z,13.20
2022-11-28T16:30:00.659Z,14.00
2022-11-28T16:32:30.571Z,13.23
2022-11-28T16:35:00.234Z,12.50
2022-11-28T16:37:28.712Z,12.67
2022-11-28T16:40:06.712Z,11.90
2022-11-28T16:42:34.959Z,13.23
2022-11-28T16:45:16.034Z,12.80
2022-11-28T16:47:43.862Z,13.20
2022-11-28T16:50:15.621Z,12.93
2022-11-28T16:52:45.667Z,13.07
2022-11-28T16:55:27.776Z,12.37
2022-11-28T16:58:07.291Z,13.63
2022-11-28T17:00:34.772Z,12.73
2022-11-28T17:03:02.122Z,12.53
2022-11-28T17:05:29.193Z,13.20
2022-11-28T17:07:56.569Z,12.17
2022-11-28T17:10:25.477Z,13.17
2022-11-28T17:12:52.715Z,12.43
2022-11-28T17:15:23.557Z,11.93
2022-11-28T17:17:50.687Z,13.87
2022-11-28T17:20:17.838Z,13.13
2022-11-28T17:22:47.042Z,12.80
2022-11-28T17:25:15.942Z,13.53
2022-11-28T17:27:43.454Z,12.57
2022-11-28T17:30:17.092Z,13.40
2022-11-28T17:32:44.227Z,14.30
2022-11-28T17:35:14.652Z,15.00
2022-11-28T17:37:41.705Z,14.87
2022-11-28T17:40:27.697Z,15.73
2022-11-28T17:42:55.147Z,16.40
2022-11-28T17:45:22.827Z,16.23
2022-11-28T17:47:49.933Z,15.90
2022-11-28T17:50:17.634Z,15.07
2022-11-28T17:52:45.042Z,14.43
2022-11-28T17:55:12.150Z,13.77
2022-11-28T17:57:39.329Z,13.33
2022-11-28T18:00:07.446Z,13.93
2022-11-28T18:02:34.641Z,15.27
2022-11-28T18:05:01.967Z,14.13
2022-11-28T18:07:30.022Z,14.03
2022-11-28T18:09:57.101Z,14.93
2022-11-28T18:12:24.158Z,14.63
2022-11-28T18:14:51.197Z,16.03
2022-11-28T18:17:18.280Z,14.70
2022-11-28T18:19:45.534Z,15.07
2022-11-28T18:22:12.826Z,15.13
2022-11-28T18:24:39.853Z,14.47
2022-11-28T18:27:06.905Z,15.10
2022-11-28T18:29:34.263Z,14.90
2022-11-28T18:32:01.983Z,16.03
2022-11-28T18:34:29.082Z,15.30
2022-11-28T18:37:00.629Z,15.27
2022-11-28T18:39:28.239Z,15.33
2022-11-28T18:41:56.444Z,14.83
2022-11-28T18:44:23.485Z,15.27
2022-11-28T18:46:50.558Z,15.80
2022-11-28T18:49:19.105Z,15.80
2022-11-28T18:51:46.232Z,14.97
2022-11-28T18:54:19.275Z,15.47
2022-11-28T18:56:48.113Z,15.50
2022-11-28T18:59:15.237Z,15.80
2022-11-28T19:01:43.365Z,14.80
2022-11-28T19:04:11.709Z,15.17
2022-11-28T19:06:39.802Z,13.73
2022-11-28T19:09:09.368Z,14.20
2022-11-28T19:11:36.422Z,15.20
2022-11-28T19:14:03.717Z,14.87
2022-11-28T19:16:32.080Z,14.73
2022-11-28T19:18:59.623Z,14.67
2022-11-28T19:21:28.290Z,15.27
2022-11-28T19:23:56.284Z,14.40
2022-11-28T19:26:24.845Z,14.53
2022-11-28T19:28:52.507Z,14.63
2022-11-28T19:31:29.291Z,15.33
2022-11-28T19:34:00.827Z,17.13
2022-11-28T19:36:29.334Z,16.40
2022-11-28T19:38:56.391Z,15.80
2022-11-28T19:41:23.773Z,15.57
2022-11-28T19:43:51.817Z,16.00
2022-11-28T19:46:19.394Z,16.13
2022-11-28T19:48:47.016Z,16.70
2022-11-28T19:51:16.273Z,16.13
2022-11-28T19:53:44.069Z,16.50
2022-11-28T19:56:14.648Z,15.63
2022-11-28T19:58:43.995Z,16.30
2022-11-28T20:01:15.938Z,16.57
2022-11-28T20:03:43.636Z,16.43
2022-11-28T20:06:12.266Z,16.87
2022-11-28T20:08:39.541Z,15.83
2022-11-28T20:11:09.712Z,16.57
2022-11-28T20:13:36.795Z,18.27
2022-11-28T20:16:07.145Z,17.63
2022-11-28T20:18:34.408Z,17.07
2022-11-28T20:21:05.463Z,17.73
2022-11-28T20:23:32.663Z,17.77
2022-11-28T20:26:03.802Z,19.57
2022-11-28T20:28:35.001Z,17.33
2022-11-28T20:31:02.137Z,18.23
2022-11-28T20:33:29.224Z,18.43
2022-11-28T20:36:09.740Z,19.00
2022-11-28T20:38:36.999Z,17.83
2022-11-28T20:41:05.660Z,20.87
2022-11-28T20:43:33.846Z,17.53
2022-11-28T20:46:19.499Z,18.37
2022-11-28T20:48:46.689Z,18.23
2022-11-28T20:51:18.691Z,19.30
2022-11-28T20:53:46.143Z,19.13
2022-11-28T20:56:14.469Z,17.67
2022-11-28T20:58:41.674Z,18.83
2022-11-28T21:01:09.263Z,19.87
2022-11-28T21:03:37.200Z,20.07
2022-11-28T21:06:04.366Z,19.03
2022-11-28T21:08:33.699Z,20.37
2022-11-28T21:11:06.440Z,22.07
2022-11-28T21:13:33.638Z,21.57
2022-11-28T21:16:07.105Z,23.57
2022-11-28T21:18:34.978Z,20.83
2022-11-28T21:21:07.500Z,21.70
2022-11-28T21:23:34.553Z,20.90
2022-11-28T21:26:05.720Z,22.43
2022-11-28T21:28:36.759Z,20.70
2022-11-28T21:31:11.920Z,20.40
2022-11-28T21:33:39.062Z,19.30
2022-11-28T21:36:07.055Z,19.27
2022-11-28T21:38:34.558Z,19.63
2022-11-28T21:41:01.857Z,19.50
2022-11-28T21:43:29.957Z,20.30
2022-11-28T21:46:02.498Z,19.70
2022-11-28T21:48:30.408Z,19.50
2022-11-28T21:50:58.537Z,19.53
2022-11-28T21:53:26.485Z,19.63
2022-11-28T21:55:56.551Z,18.23
2022-11-28T21:58:26.757Z,17.47
2022-11-28T22:01:00.778Z,19.57
2022-11-28T22:03:28.825Z,19.33
2022-11-28T22:06:03.385Z,19.57
2022-11-28T22:08:31.301Z,17.37
2022-11-28T22:11:00.996Z,18.03
2022-11-28T22:13:28.618Z,17.57
2022-11-28T22:15:55.804Z,17.77
2022-11-28T22:18:23.049Z,17.93
2022-11-28T22:20:52.836Z,17.20
2022-11-28T22:23:20.275Z,18.80
2022-11-28T22:25:51.645Z,16.93
2022-11-28T22:28:18.760Z,17.13
2022-11-28T22:30:45.885Z,18.87
2022-11-28T22:33:12.962Z,15.87
2022-11-28T22:35:40.047Z,16.17
2022-11-28T22:38:07.132Z,16.10
2022-11-28T22:40:34.194Z,18.73
2022-11-28T22:43:01.272Z,17.47
2022-11-28T22:45:28.479Z,17.83
2022-11-28T22:47:55.549Z,15.17
2022-11-28T22:50:22.796Z,17.13
2022-11-28T22:52:49.982Z,16.37
2022-11-28T22:55:17.221Z,17.07
2022-11-28T22:57:44.384Z,17.30
2022-11-28T23:00:11.975Z,16.50
2022-11-28T23:02:39.166Z,14.50
2022-11-28T23:05:06.424Z,17.00
2022-11-28T23:07:33.536Z,15.93
2022-11-28T23:10:00.614Z,16.47
2022-11-28T23:12:27.677Z,15.80
2022-11-28T23:14:54.789Z,18.07
2022-11-28T23:17:21.851Z,16.13
2022-11-28T23:19:48.892Z,16.57
2022-11-28T23:22:15.974Z,16.63
2022-11-28T23:24:43.359Z,16.70
2022-11-28T23:27:10.758Z,16.63
2022-11-28T23:29:37.810Z,16.63
2022-11-28T23:32:04.956Z,18.00
2022-11-28T23:34:32.048Z,15.67
2022-11-28T23:36:59.108Z,16.00
2022-11-28T23:39:26.313Z,16.77
2022-11-28T23:41:53.574Z,14.40
2022-11-28T23:44:20.753Z,15.57
2022-11-28T23:46:48.360Z,15.97
2022-11-28T23:49:15.675Z,15.73
2022-11-28T23:51:43.154Z,15.77
2022-11-28T23:54:10.890Z,15.57
2022-11-28T23:56:38.739Z,15.77
2022-11-28T23:59:06.787Z,14.97
